Terminal Aerodrome Forecast
Issued by NWS

Home | Current Version | Previous Version | Text Only | Print | Product List | Glossary On
Versions: 1 2 3 4 5 6 7 8 9 10 11 12
000
FTAK31 PAFA 192320
TAFABT
TAF
PABT 192320Z 2000/2024 21003KT P6SM FEW120 OVC160
     FM200800 02009G15KT P6SM BKN100=

USA.gov is the U.S. government's official web portal to all federal, state and local government web resources and services.